Flight Track Log - Related Links

Times and Time Zones

All times are in EDT time to prevent confusion due to time zone crossing. See the UAL3821 flight status page for this flight to view local times or setup timezone preferences in your user account.


Time Position Orientation Groundspeed Altitude Reporting Facility
EDT Latitude Longitude Course Direction KTS MPH feet Rate Location/Type
Thu 06:36:14 AM 40.7167 -74.1500 194° South 166 191 2,000  Level New York TRACON
Thu 06:37:08 AM 40.7500 -74.1000 49° Northeast 237 273 3,700 2,105 Climbing New York TRACON
Thu 06:38:08 AM 40.8000 -74.1500 323° Northwest 285 328 6,000 1,252 Climbing New York TRACON
Thu 06:39:00 AM 40.2710 -74.1597 194° South  Level FlightAware Approximate
Thu 06:39:03 AM 40.7500 -74.2000 217° Southwest 277 319 6,100  Level New York TRACON
Thu 06:40:00 AM 40.1613 -74.1962 194° South  Level FlightAware Approximate
Thu 06:40:03 AM 40.6833 -74.2333 201° Southwest 291 335 7,900  Level New York TRACON
Thu 06:41:00 AM 40.0519 -74.2272 194° South  Level FlightAware Approximate
Thu 06:41:03 AM 40.6333 -74.3167 232° Southwest 280 322 11,000  Level New York TRACON
Thu 06:42:03 AM 40.5667 -74.3000 169° South 301 346 12,500 1,316 Climbing New York TRACON
Thu 06:42:57 AM 40.4833 -74.2500 155° Southeast 338 389 13,500 1,207 Climbing New York TRACON
Thu 06:44:47 AM 40.3081 -74.2519 180° South 365 420 15,800 1,286 Climbing New York Center
Thu 06:45:45 AM 40.1978 -74.2547 181° South 380 437 17,100 1,000 Climbing New York Center
Thu 06:46:47 AM 40.0850 -74.2492 178° South 389 448 17,800 976 Climbing Washington Center
Thu 06:47:48 AM 39.9750 -74.2811 193° South 384 442 19,100 1,311 Climbing Washington Center
Thu 06:48:46 AM 39.8822 -74.3694 216° Southwest 389 448 20,400 1,322 Climbing Washington Center
Thu 06:49:46 AM 39.7894 -74.4656 219° Southwest 414 476 21,700 1,300 Climbing Washington Center
Thu 06:50:46 AM 39.7072 -74.5800 227° Southwest 425 489 23,000 1,279 Climbing Washington Center
Thu 06:51:48 AM 39.6206 -74.6892 224° Southwest 431 496 24,300 1,300 Climbing Washington Center
Thu 06:52:46 AM 39.5358 -74.8031 226° Southwest 431 496 25,600 864 Climbing Washington Center
Thu 06:53:46 AM 39.4594 -74.9033 225° Southwest 431 496 26,000 197 Climbing Washington Center
Thu 06:54:48 AM 39.3706 -75.0225 226° Southwest 437 503 26,000  Level Washington Center
Thu 06:55:47 AM 39.2792 -75.1411 225° Southwest 453 521 26,000  Level Washington Center
Thu 06:56:48 AM 39.1839 -75.2622 225° Southwest 472 543 26,000  Level Washington Center
Thu 06:57:46 AM 39.0881 -75.3883 226° Southwest 485 558 26,000  Level Washington Center
Thu 06:58:47 AM 38.9925 -75.5114 225° Southwest 485 558 26,000  Level Washington Center
Thu 06:59:48 AM 38.9008 -75.6369 227° Southwest 485 558 26,000  Level Washington Center
Thu 07:00:48 AM 38.8444 -75.7969 246° West 485 558 26,000  Level Washington Center
Thu 07:01:46 AM 38.7814 -75.9406 241° Southwest 485 558 26,000  Level Washington Center
Thu 07:02:47 AM 38.6747 -76.0436 217° Southwest 476 548 26,000  Level Washington Center
Thu 07:03:48 AM 38.5639 -76.1361 213° Southwest 471 542 26,000  Level Washington Center
Thu 07:04:45 AM 38.4592 -76.2439 219° Southwest 486 559 26,000  Level Washington Center
Thu 07:06:00 AM 38.3530 -76.3383 215° Southwest  Level FlightAware Approximate
Thu 07:06:47 AM 38.2536 -76.4483 215° Southwest 478 550 26,000  Level Washington Center
Thu 07:07:48 AM 38.1650 -76.5689 227° Southwest 468 539 26,000  Level Washington Center
Thu 07:08:48 AM 38.0742 -76.6997 229° Southwest 476 548 26,000 -407 Level Washington Center
Thu 07:09:46 AM 37.9794 -76.8142 224° Southwest 481 554 25,200 -1,160 Descending Washington Center
Thu 07:10:47 AM 37.8597 -76.8753 202° Southwest 473 544 23,700 -1,426 Descending Washington Center
Thu 07:11:48 AM 37.7342 -76.9308 199° South 473 544 22,300 -843 Descending Washington Center
Thu 07:12:48 AM 37.6167 -76.9839 200° South 462 532 22,000 -153 Descending Washington Center
Thu 07:13:46 AM 37.4867 -77.0469 201° Southwest 452 520 22,000  Level Washington Center
Thu 07:14:47 AM 37.3797 -77.0947 200° South 452 520 22,000  Level Washington Center
Thu 07:15:47 AM 37.2536 -77.1678 205° Southwest 447 514 22,000  Level Washington Center
Thu 07:16:48 AM 37.1439 -77.2439 209° Southwest 452 520 22,000  Level Washington Center
Thu 07:17:46 AM 37.0367 -77.3222 210° Southwest 457 526 22,000  Level Washington Center
Thu 07:18:47 AM 36.9372 -77.3978 211° Southwest 463 533 22,000  Level Washington Center
Thu 07:19:48 AM 36.8297 -77.4758 210° Southwest 458 527 22,000  Level Washington Center
Thu 07:20:45 AM 36.7242 -77.5561 211° Southwest 453 521 22,000  Level Washington Center
Thu 07:21:47 AM 36.6164 -77.6361 211° Southwest 453 521 22,000  Level Washington Center
Thu 07:22:47 AM 36.5128 -77.7214 213° Southwest 453 521 22,000 -645 Level Washington Center
Thu 07:23:48 AM 36.4272 -77.8300 226° Southwest 443 510 20,700 -1,361 Descending Washington Center
Thu 07:24:24 AM 36.3653 -77.9083 226° Southwest 432 497 19,800 -1,500 Descending Washington Center
Thu 07:24:48 AM 36.3458 -77.9386 231° Southwest 443 510 19,200 -2,060 Descending Washington Center
Thu 07:25:31 AM 36.2817 -78.0192 225° Southwest 408 470 17,500 -2,379 Descending Washington Center
Thu 07:25:46 AM 36.2686 -78.0444 237° Southwest 432 497 16,900 -3,148 Descending Washington Center
Thu 07:26:32 AM 36.1981 -78.1272 223° Southwest 405 466 14,300 -2,852 Descending Washington Center
Thu 07:26:47 AM 36.1914 -78.1425 242° Southwest 411 473 14,000 -2,000 Descending Washington Center
Thu 07:27:26 AM 36.1439 -78.2208 233° Southwest 393 452 12,500 -2,200 Descending Washington Center
Thu 07:27:47 AM 36.1242 -78.2639 240° Southwest 400 460 11,800 -1,548 Descending Washington Center
Thu 07:28:28 AM 36.0914 -78.3269 237° Southwest 362 417 10,900 -1,220 Descending Washington Center
Thu 07:28:46 AM 36.0803 -78.3572 246° West 374 430 10,600 -1,263 Descending Washington Center
Thu 07:29:25 AM 36.0433 -78.4281 237° Southwest 292 336 9,700 -1,100 Descending Washington Center
Thu 07:29:46 AM 36.0431 -78.4331 266° West 321 369 9,500 -1,059 Descending Washington Center
Thu 07:30:33 AM 36.0014 -78.5164 238° Southwest 272 313 8,500 -1,065 Descending Washington Center
Thu 07:30:48 AM 35.9969 -78.5264 241° Southwest 304 350 8,400 -484 Descending Washington Center
Thu 07:31:35 AM 35.9478 -78.5786 221° Southwest 265 305 8,000 -168 Descending Washington Center
Thu 07:32:35 AM 35.8942 -78.6328 219° Southwest 240 276 8,100 -250 Climbing Washington Center
Thu 07:33:35 AM 35.8386 -78.6819 216° Southwest 235 270 7,500 -1,008 Descending Washington Center
Thu 07:34:34 AM 35.7933 -78.7417 227° Southwest 245 282 6,100 -1,476 Descending Washington Center
Thu 07:35:41 AM 35.7394 -78.8086 225° Southwest 235 270 4,400 -1,031 Descending Washington Center
Thu 07:36:42 AM 35.7022 -78.8686 233° Southwest 235 270 3,900 -983 Descending Washington Center
Thu 07:37:37 AM 35.7233 -78.9358 291° West 231 266 2,500 -947 Descending Washington Center
Thu 07:38:36 AM 35.7653 -78.9325 North 172 198 2,100 -150 Descending Washington Center
Thu 07:39:37 AM 35.7975 -78.8981 41° Northeast 159 183 2,200 -148 Climbing Washington Center
Thu 07:40:38 AM 35.8256 -78.8633 45° Northeast 116 133 1,800 -393 Descending Washington Center

Login

Don't have an account? Register now (free) for customized features, flight alerts, and more!